createdAt,value
2022-07-27T00:01:09.295Z,19.70
2022-07-27T00:03:38.495Z,19.70
2022-07-27T00:06:07.098Z,19.80
2022-07-27T00:08:35.662Z,19.90
2022-07-27T00:11:04.011Z,19.90
2022-07-27T00:13:34.011Z,19.80
2022-07-27T00:16:02.222Z,19.70
2022-07-27T00:18:30.634Z,19.70
2022-07-27T00:20:58.746Z,19.60
2022-07-27T00:23:27.175Z,19.50
2022-07-27T00:25:55.424Z,19.40
2022-07-27T00:28:23.547Z,19.40
2022-07-27T00:30:53.238Z,19.40
2022-07-27T00:33:21.309Z,19.40
2022-07-27T00:35:49.395Z,19.40
2022-07-27T00:38:17.599Z,19.30
2022-07-27T00:40:45.682Z,19.30
2022-07-27T00:43:15.278Z,19.30
2022-07-27T00:45:43.518Z,19.10
2022-07-27T00:48:12.967Z,19.10
2022-07-27T00:50:43.909Z,19.10
2022-07-27T00:53:14.211Z,19.10
2022-07-27T00:55:42.438Z,19.10
2022-07-27T00:58:10.805Z,19.10
2022-07-27T01:00:39.876Z,19.10
2022-07-27T01:03:08.707Z,19.20
2022-07-27T01:05:42.790Z,19.20
2022-07-27T01:08:14.109Z,19.20
2022-07-27T01:10:43.161Z,19.10
2022-07-27T01:13:12.911Z,19.10
2022-07-27T01:15:42.664Z,19.00
2022-07-27T01:18:13.657Z,19.00
2022-07-27T01:20:43.302Z,19.00
2022-07-27T01:23:12.762Z,19.00
2022-07-27T01:25:43.003Z,18.80
2022-07-27T01:28:11.344Z,18.90
2022-07-27T01:30:39.541Z,18.90
2022-07-27T01:33:09.336Z,18.80
2022-07-27T01:35:38.872Z,18.70
2022-07-27T01:38:07.821Z,18.60
2022-07-27T01:40:39.665Z,18.60
2022-07-27T01:43:08.277Z,18.70
2022-07-27T01:45:36.791Z,18.70
2022-07-27T01:48:05.379Z,18.70
2022-07-27T01:50:33.784Z,18.60
2022-07-27T01:53:02.203Z,18.60
2022-07-27T01:55:38.505Z,18.50
2022-07-27T01:58:09.174Z,18.50
2022-07-27T02:00:37.887Z,18.50
2022-07-27T02:03:08.041Z,18.50
2022-07-27T02:05:37.243Z,18.50
2022-07-27T02:08:06.352Z,18.40
2022-07-27T02:10:35.514Z,18.40
2022-07-27T02:13:02.719Z,18.40
2022-07-27T02:15:54.571Z,18.40
2022-07-27T02:18:35.831Z,18.30
2022-07-27T02:21:06.331Z,18.30
2022-07-27T02:23:35.018Z,18.40
2022-07-27T02:26:03.262Z,18.30
2022-07-27T02:28:31.453Z,18.30
2022-07-27T02:31:01.074Z,18.30
2022-07-27T02:33:29.584Z,18.20
2022-07-27T02:35:57.705Z,18.20
2022-07-27T02:38:26.043Z,18.10
2022-07-27T02:40:54.285Z,18.10
2022-07-27T02:43:23.053Z,18.10
2022-07-27T02:45:51.494Z,18.10
2022-07-27T02:48:21.719Z,18.20
2022-07-27T02:50:49.834Z,18.20
2022-07-27T02:53:17.952Z,18.20
2022-07-27T02:55:46.288Z,18.10
2022-07-27T02:58:14.565Z,18.10
2022-07-27T03:00:42.637Z,18.20
2022-07-27T03:03:10.773Z,18.30
2022-07-27T03:05:40.432Z,18.30
2022-07-27T03:08:08.519Z,18.30
2022-07-27T03:10:36.982Z,18.20
2022-07-27T03:13:05.228Z,18.20
2022-07-27T03:15:37.209Z,18.10
2022-07-27T03:18:05.442Z,18.10
2022-07-27T03:20:33.994Z,18.20
2022-07-27T03:23:03.419Z,18.30
2022-07-27T03:25:31.762Z,18.20
2022-07-27T03:28:04.423Z,18.20
2022-07-27T03:30:33.202Z,18.30
2022-07-27T03:33:01.562Z,18.30
2022-07-27T03:35:30.506Z,18.40
2022-07-27T03:37:58.684Z,18.40
2022-07-27T03:40:29.643Z,18.50
2022-07-27T03:42:58.109Z,18.60
2022-07-27T03:45:26.543Z,18.50
2022-07-27T03:47:55.367Z,18.50
2022-07-27T03:50:23.718Z,18.40
2022-07-27T03:52:52.610Z,18.50
2022-07-27T03:55:20.990Z,18.50
2022-07-27T03:57:52.471Z,18.40
2022-07-27T04:00:21.353Z,18.50
2022-07-27T04:02:49.603Z,18.50
2022-07-27T04:05:17.808Z,18.60
2022-07-27T04:07:46.121Z,18.50
2022-07-27T04:10:14.536Z,18.50
2022-07-27T04:12:43.343Z,18.40
2022-07-27T04:15:16.777Z,18.30
2022-07-27T04:17:54.704Z,18.30
2022-07-27T04:20:26.165Z,18.10
2022-07-27T04:22:54.412Z,18.10
2022-07-27T04:25:23.271Z,18.00
2022-07-27T04:27:54.541Z,17.80
2022-07-27T04:30:24.944Z,17.90
2022-07-27T04:32:53.433Z,17.90
2022-07-27T04:35:26.380Z,17.90
2022-07-27T04:37:58.279Z,17.90
2022-07-27T04:40:31.238Z,18.00
2022-07-27T04:42:59.357Z,17.90
2022-07-27T04:45:29.447Z,17.90
2022-07-27T04:47:57.860Z,17.90
2022-07-27T04:50:26.114Z,17.90
2022-07-27T04:52:54.284Z,17.90
2022-07-27T04:55:22.550Z,17.70
2022-07-27T04:57:51.239Z,17.70
2022-07-27T05:00:20.020Z,17.70
2022-07-27T05:02:49.569Z,17.70
2022-07-27T05:05:17.682Z,17.80
2022-07-27T05:07:47.635Z,17.80
2022-07-27T05:10:20.104Z,17.90
2022-07-27T05:12:49.447Z,17.90
2022-07-27T05:15:18.090Z,18.00
2022-07-27T05:17:46.355Z,18.00
2022-07-27T05:20:16.280Z,18.00
2022-07-27T05:22:44.590Z,18.00
2022-07-27T05:25:12.899Z,18.00
2022-07-27T05:27:54.225Z,17.90
2022-07-27T05:30:27.225Z,17.80
2022-07-27T05:33:03.277Z,17.80
2022-07-27T05:35:33.773Z,17.90
2022-07-27T05:38:02.627Z,17.90
2022-07-27T05:40:33.994Z,17.90
2022-07-27T05:43:05.348Z,17.90
2022-07-27T05:45:34.464Z,17.90
2022-07-27T05:48:03.149Z,18.00
2022-07-27T05:50:32.670Z,18.00
2022-07-27T05:53:01.193Z,17.90
2022-07-27T05:55:33.525Z,18.00
2022-07-27T05:58:02.441Z,18.10
2022-07-27T06:00:30.870Z,18.20
2022-07-27T06:02:59.191Z,18.10
2022-07-27T06:05:27.622Z,18.10
2022-07-27T06:07:59.777Z,18.10
2022-07-27T06:10:32.644Z,18.20
2022-07-27T06:13:02.736Z,18.10
2022-07-27T06:15:31.064Z,18.10
2022-07-27T06:17:59.411Z,18.20
2022-07-27T06:20:28.300Z,18.20
2022-07-27T06:23:03.233Z,18.10
2022-07-27T06:25:37.174Z,18.20
2022-07-27T06:28:05.776Z,18.30
2022-07-27T06:30:35.226Z,18.30
2022-07-27T06:33:06.289Z,18.40
2022-07-27T06:35:38.317Z,18.50
2022-07-27T06:38:09.616Z,18.60
2022-07-27T06:40:38.244Z,18.60
2022-07-27T06:43:06.936Z,18.60
2022-07-27T06:45:35.121Z,18.60
2022-07-27T06:48:03.656Z,18.70
2022-07-27T06:50:31.997Z,18.70
2022-07-27T06:53:03.758Z,18.70
2022-07-27T06:55:33.456Z,18.70
2022-07-27T06:58:02.055Z,18.80
2022-07-27T07:00:30.599Z,18.80
2022-07-27T07:03:00.773Z,18.80
2022-07-27T07:05:29.161Z,18.80
2022-07-27T07:07:58.433Z,18.70
2022-07-27T07:10:27.712Z,18.70
2022-07-27T07:13:05.006Z,18.80
2022-07-27T07:15:38.039Z,18.90
2022-07-27T07:18:06.834Z,19.10
2022-07-27T07:20:41.883Z,19.00
2022-07-27T07:23:12.518Z,19.10
2022-07-27T07:25:41.844Z,19.10
2022-07-27T07:28:11.436Z,19.20
2022-07-27T07:30:39.573Z,19.30
2022-07-27T07:33:07.871Z,19.30
2022-07-27T07:35:38.650Z,19.40
2022-07-27T07:38:26.803Z,19.60
2022-07-27T07:40:55.080Z,19.80
2022-07-27T07:43:27.547Z,20.00
2022-07-27T07:45:56.370Z,20.00
2022-07-27T07:48:25.376Z,20.10
2022-07-27T07:50:54.765Z,20.20
2022-07-27T07:53:24.859Z,20.10
2022-07-27T07:55:53.639Z,20.10
2022-07-27T07:58:21.844Z,20.10
2022-07-27T08:00:51.803Z,20.00
2022-07-27T08:03:20.415Z,19.90
2022-07-27T08:05:49.233Z,20.00
2022-07-27T08:08:54.453Z,20.00
2022-07-27T08:11:24.215Z,19.90
2022-07-27T08:13:52.907Z,19.90
2022-07-27T08:16:22.924Z,19.80
2022-07-27T08:18:51.320Z,19.90
2022-07-27T08:21:19.797Z,19.90
2022-07-27T08:23:48.022Z,19.90
2022-07-27T08:26:18.322Z,19.90
2022-07-27T08:28:46.674Z,19.80
2022-07-27T08:31:18.925Z,19.70
2022-07-27T08:33:54.562Z,19.70
2022-07-27T08:36:22.910Z,19.90
2022-07-27T08:38:51.718Z,20.10
2022-07-27T08:41:23.505Z,20.20
2022-07-27T08:43:51.727Z,20.30
2022-07-27T08:46:20.241Z,20.30
2022-07-27T08:48:49.301Z,20.40
2022-07-27T08:51:19.667Z,20.10
2022-07-27T08:53:52.335Z,20.10
2022-07-27T08:56:21.881Z,20.10
2022-07-27T08:58:50.112Z,20.00
2022-07-27T09:01:19.030Z,20.00
2022-07-27T09:03:48.393Z,20.00
2022-07-27T09:06:53.146Z,20.20
2022-07-27T09:09:23.503Z,20.50
2022-07-27T09:12:07.067Z,20.70
2022-07-27T09:14:37.813Z,20.90
2022-07-27T09:20:18.440Z,21.00
2022-07-27T09:22:52.296Z,20.70
2022-07-27T09:25:44.912Z,20.60
2022-07-27T09:28:11.546Z,20.60
2022-07-27T09:30:43.748Z,20.40
2022-07-27T09:33:12.454Z,20.20
2022-07-27T09:35:41.363Z,20.00
2022-07-27T09:38:20.628Z,20.00
2022-07-27T09:40:49.929Z,20.10
2022-07-27T09:44:05.445Z,20.20
2022-07-27T09:46:10.738Z,20.30
2022-07-27T09:48:39.505Z,20.50
2022-07-27T09:51:55.754Z,20.70
2022-07-27T09:54:07.491Z,20.80
2022-07-27T09:56:36.042Z,20.80
2022-07-27T09:59:05.214Z,20.80
2022-07-27T10:01:35.712Z,20.80
2022-07-27T10:04:07.537Z,20.80
2022-07-27T10:07:01.239Z,20.80
2022-07-27T10:09:27.536Z,20.70
2022-07-27T10:11:57.270Z,20.90
2022-07-27T10:14:26.166Z,20.80
2022-07-27T10:16:56.481Z,20.90
2022-07-27T10:19:29.318Z,21.00
2022-07-27T10:21:57.980Z,21.20
2022-07-27T10:24:32.282Z,21.40
2022-07-27T10:27:00.741Z,21.50
2022-07-27T10:29:29.844Z,21.50
2022-07-27T10:32:01.101Z,21.60
2022-07-27T10:34:38.018Z,21.70
2022-07-27T10:37:11.569Z,21.60
2022-07-27T10:39:44.437Z,21.50
2022-07-27T10:42:25.494Z,21.70
2022-07-27T10:45:12.506Z,21.80
2022-07-27T10:47:47.743Z,21.90
2022-07-27T10:50:30.247Z,21.80
2022-07-27T10:53:11.137Z,21.90
2022-07-27T10:55:49.266Z,21.80
2022-07-27T10:58:51.937Z,21.80
2022-07-27T11:01:22.644Z,21.80
2022-07-27T11:03:53.715Z,21.70
2022-07-27T11:06:48.176Z,21.80
2022-07-27T11:12:06.994Z,21.80
2022-07-27T11:14:46.901Z,21.70
2022-07-27T11:20:05.333Z,21.60
2022-07-27T11:25:24.742Z,21.80
2022-07-27T11:27:54.222Z,22.10
2022-07-27T11:30:23.945Z,22.20
2022-07-27T11:32:52.322Z,22.20
2022-07-27T11:35:20.819Z,22.20
2022-07-27T11:38:01.238Z,22.30
2022-07-27T11:43:38.434Z,22.40
2022-07-27T11:46:18.989Z,22.20
2022-07-27T11:49:11.879Z,22.20
2022-07-27T11:51:43.213Z,22.30
2022-07-27T11:54:21.873Z,22.10
2022-07-27T11:56:52.539Z,22.00
2022-07-27T11:59:22.785Z,22.00
2022-07-27T12:01:54.163Z,22.00
2022-07-27T12:04:27.577Z,22.00
2022-07-27T12:07:02.169Z,22.00
2022-07-27T12:09:38.214Z,22.10
2022-07-27T12:12:13.989Z,22.20
2022-07-27T12:14:52.164Z,22.10
2022-07-27T12:17:28.985Z,22.00
2022-07-27T12:20:00.318Z,22.00
2022-07-27T12:22:34.509Z,22.10
2022-07-27T12:25:10.027Z,22.00
2022-07-27T12:27:56.473Z,22.00
2022-07-27T12:30:32.878Z,22.00
2022-07-27T12:33:01.785Z,21.90
2022-07-27T12:35:38.143Z,21.90
2022-07-27T12:38:14.224Z,21.90
2022-07-27T12:40:48.475Z,22.00
2022-07-27T12:43:22.456Z,22.10
2022-07-27T12:45:56.942Z,22.20
2022-07-27T12:48:27.877Z,22.10
2022-07-27T12:51:00.757Z,22.00
2022-07-27T12:53:29.921Z,22.20
2022-07-27T12:56:00.092Z,22.40
2022-07-27T12:58:28.606Z,22.40
2022-07-27T13:00:58.502Z,22.40
2022-07-27T13:03:26.790Z,22.40
2022-07-27T13:05:55.249Z,22.50
2022-07-27T13:08:23.979Z,22.30
2022-07-27T13:10:53.139Z,22.30
2022-07-27T13:13:24.981Z,22.30
2022-07-27T13:15:56.567Z,22.30
2022-07-27T13:18:26.130Z,22.20
2022-07-27T13:20:54.337Z,22.40
2022-07-27T13:23:22.886Z,22.40
2022-07-27T13:25:52.049Z,22.40
2022-07-27T13:28:20.242Z,22.50
2022-07-27T13:30:48.838Z,22.60
2022-07-27T13:33:17.080Z,22.70
2022-07-27T13:35:47.690Z,22.80
2022-07-27T13:38:28.753Z,22.80
2022-07-27T13:40:57.237Z,22.70
2022-07-27T13:43:25.575Z,22.90
2022-07-27T13:45:54.095Z,23.10
2022-07-27T13:48:22.437Z,23.30
2022-07-27T13:50:52.822Z,23.30
2022-07-27T13:53:21.192Z,23.30
2022-07-27T13:55:49.800Z,23.30
2022-07-27T13:58:18.231Z,23.10
2022-07-27T14:00:46.859Z,23.00
2022-07-27T14:03:15.441Z,22.80
2022-07-27T14:05:49.169Z,22.60
2022-07-27T14:08:22.141Z,22.60
2022-07-27T14:10:51.948Z,22.60
2022-07-27T14:13:25.916Z,22.80
2022-07-27T14:15:55.834Z,22.90
2022-07-27T14:18:26.031Z,23.00
2022-07-27T14:20:55.044Z,23.10
2022-07-27T14:23:36.312Z,23.20
2022-07-27T14:26:08.003Z,23.10
2022-07-27T14:28:39.348Z,23.00
2022-07-27T14:31:09.770Z,23.00
2022-07-27T14:33:38.744Z,23.10
2022-07-27T14:36:09.262Z,23.10
2022-07-27T14:38:39.484Z,23.10
2022-07-27T14:41:08.146Z,22.80
2022-07-27T14:43:37.177Z,22.50
2022-07-27T14:46:05.317Z,22.30
2022-07-27T14:49:05.755Z,22.30
2022-07-27T14:51:22.321Z,22.40
2022-07-27T14:53:52.980Z,22.60
2022-07-27T14:56:23.094Z,22.80
2022-07-27T14:58:51.349Z,22.90
2022-07-27T15:01:19.852Z,23.00
2022-07-27T15:03:48.176Z,22.90
2022-07-27T15:06:17.438Z,22.80
2022-07-27T15:08:45.601Z,22.80
2022-07-27T15:11:16.972Z,22.70
2022-07-27T15:13:45.090Z,22.80
2022-07-27T15:16:14.933Z,22.80
2022-07-27T15:18:43.124Z,22.90
2022-07-27T15:21:14.773Z,23.00
2022-07-27T15:23:44.372Z,23.10
2022-07-27T15:26:13.313Z,23.10
2022-07-27T15:28:45.844Z,23.10
2022-07-27T15:31:14.604Z,23.10
2022-07-27T15:33:43.434Z,23.20
2022-07-27T15:36:31.329Z,23.50
2022-07-27T15:39:00.136Z,23.60
2022-07-27T15:41:30.908Z,23.70
2022-07-27T15:44:01.329Z,24.00
2022-07-27T15:46:29.764Z,24.10
2022-07-27T15:48:58.022Z,24.00
2022-07-27T15:51:29.433Z,23.80
2022-07-27T15:53:58.804Z,23.70
2022-07-27T15:56:28.029Z,23.50
2022-07-27T15:58:56.452Z,23.30
2022-07-27T16:01:35.299Z,23.20
2022-07-27T16:04:05.325Z,23.20
2022-07-27T16:06:38.846Z,23.20
2022-07-27T16:09:10.328Z,23.50
2022-07-27T16:11:43.175Z,23.70
2022-07-27T16:14:11.727Z,23.70
2022-07-27T16:16:41.405Z,23.60
2022-07-27T16:19:14.082Z,23.60
2022-07-27T16:21:53.610Z,23.70
2022-07-27T16:24:27.668Z,23.90
2022-07-27T16:26:57.337Z,24.10
2022-07-27T16:29:27.437Z,24.00
2022-07-27T16:31:59.209Z,24.00
2022-07-27T16:34:28.437Z,23.90
2022-07-27T16:36:57.062Z,23.90
2022-07-27T16:39:26.764Z,23.80
2022-07-27T16:41:55.570Z,23.80
2022-07-27T16:44:24.040Z,23.70
2022-07-27T16:46:53.216Z,23.70
2022-07-27T16:49:36.079Z,23.70
2022-07-27T16:52:05.809Z,23.70
2022-07-27T16:54:38.799Z,23.70
2022-07-27T16:57:08.179Z,23.70
2022-07-27T16:59:39.136Z,23.50
2022-07-27T17:02:07.820Z,23.50
2022-07-27T17:04:38.083Z,23.40
2022-07-27T17:07:06.651Z,23.30
2022-07-27T17:09:41.273Z,23.20
2022-07-27T17:12:09.862Z,23.20
2022-07-27T17:14:39.613Z,23.20
2022-07-27T17:17:08.063Z,23.20
2022-07-27T17:19:41.289Z,23.10
2022-07-27T17:22:12.352Z,23.10
2022-07-27T17:24:40.819Z,23.00
2022-07-27T17:27:09.181Z,22.90
2022-07-27T17:29:37.591Z,22.70
2022-07-27T17:32:05.998Z,22.70
2022-07-27T17:34:34.646Z,22.60
2022-07-27T17:37:06.316Z,22.60
2022-07-27T17:39:35.490Z,22.50
2022-07-27T17:42:06.418Z,22.40
2022-07-27T17:44:38.775Z,22.40
2022-07-27T17:47:07.315Z,22.40
2022-07-27T17:49:35.999Z,22.40
2022-07-27T17:52:06.975Z,22.50
2022-07-27T17:54:35.627Z,22.60
2022-07-27T17:57:04.351Z,22.70
2022-07-27T17:59:37.900Z,22.70
2022-07-27T18:02:08.057Z,22.50
2022-07-27T18:04:39.409Z,22.30
2022-07-27T18:07:09.329Z,22.20
2022-07-27T18:09:38.086Z,22.10
2022-07-27T18:12:07.535Z,22.00
2022-07-27T18:14:39.756Z,22.00
2022-07-27T18:17:08.990Z,22.00
2022-07-27T18:19:37.183Z,21.90
2022-07-27T18:22:05.814Z,21.90
2022-07-27T18:24:35.864Z,21.90
2022-07-27T18:27:06.397Z,21.80
2022-07-27T18:29:34.766Z,21.80
2022-07-27T18:32:02.987Z,21.80
2022-07-27T18:34:32.778Z,21.70
2022-07-27T18:37:01.384Z,21.60
2022-07-27T18:39:33.695Z,21.60
2022-07-27T18:42:05.164Z,21.50
2022-07-27T18:44:38.427Z,21.50
2022-07-27T18:47:07.588Z,21.50
2022-07-27T18:49:36.320Z,21.50
2022-07-27T18:52:05.168Z,21.50
2022-07-27T18:54:35.155Z,21.50
2022-07-27T18:57:07.330Z,21.40
2022-07-27T18:59:40.914Z,21.40
2022-07-27T19:02:10.225Z,21.40
2022-07-27T19:04:39.272Z,21.40
2022-07-27T19:07:10.596Z,21.40
2022-07-27T19:09:42.358Z,21.30
2022-07-27T19:12:12.683Z,21.30
2022-07-27T19:14:44.324Z,21.30
2022-07-27T19:17:19.691Z,21.20
2022-07-27T19:19:48.813Z,21.30
2022-07-27T19:22:17.523Z,21.20
2022-07-27T19:24:50.209Z,21.20
2022-07-27T19:27:24.238Z,21.10
2022-07-27T19:29:54.718Z,21.10
2022-07-27T19:32:28.950Z,21.00
2022-07-27T19:34:57.207Z,21.00
2022-07-27T19:37:29.721Z,21.00
2022-07-27T19:40:14.293Z,21.00
2022-07-27T19:42:48.534Z,20.90
2022-07-27T19:45:19.259Z,20.90
2022-07-27T19:47:54.156Z,20.90
2022-07-27T19:50:24.954Z,20.80
2022-07-27T19:52:54.514Z,20.70
2022-07-27T19:55:23.370Z,20.80
2022-07-27T19:57:53.540Z,20.80
2022-07-27T20:00:25.706Z,20.70
2022-07-27T20:02:58.910Z,20.70
2022-07-27T20:05:27.478Z,20.60
2022-07-27T20:07:55.576Z,20.50
2022-07-27T20:10:25.467Z,20.50
2022-07-27T20:12:55.050Z,20.30
2022-07-27T20:15:23.473Z,20.30
2022-07-27T20:17:51.770Z,20.30
2022-07-27T20:20:20.753Z,20.20
2022-07-27T20:22:49.575Z,20.10
2022-07-27T20:25:20.868Z,20.10
2022-07-27T20:27:59.230Z,20.00
2022-07-27T20:30:30.791Z,20.00
2022-07-27T20:32:59.145Z,20.00
2022-07-27T20:35:30.934Z,20.00
2022-07-27T20:38:11.606Z,19.90
2022-07-27T20:40:39.924Z,19.80
2022-07-27T20:43:10.491Z,19.80
2022-07-27T20:45:39.832Z,19.80
2022-07-27T20:48:10.606Z,19.70
2022-07-27T20:50:38.782Z,19.70
2022-07-27T20:53:10.098Z,19.70
2022-07-27T20:55:38.407Z,19.80
2022-07-27T20:58:06.835Z,19.80
2022-07-27T21:00:37.807Z,19.80
2022-07-27T21:03:06.919Z,19.70
2022-07-27T21:05:35.788Z,19.60
2022-07-27T21:08:07.163Z,19.60
2022-07-27T21:10:38.192Z,19.50
2022-07-27T21:13:07.131Z,19.60
2022-07-27T21:15:37.416Z,19.60
2022-07-27T21:18:06.405Z,19.80
2022-07-27T21:20:34.697Z,19.80
2022-07-27T21:23:22.342Z,19.80
2022-07-27T21:26:15.579Z,19.80
2022-07-27T21:28:55.048Z,19.90
2022-07-27T21:31:39.182Z,19.90
2022-07-27T21:34:12.242Z,19.80
2022-07-27T21:36:41.343Z,19.80
2022-07-27T21:39:12.833Z,19.80
2022-07-27T21:41:44.661Z,19.70
2022-07-27T21:44:22.604Z,19.60
2022-07-27T21:46:54.421Z,19.60
2022-07-27T21:49:29.891Z,19.60
2022-07-27T21:52:09.480Z,19.50
2022-07-27T21:54:39.954Z,19.50
2022-07-27T21:57:10.578Z,19.40
2022-07-27T21:59:41.478Z,19.30
2022-07-27T22:02:18.390Z,19.30
2022-07-27T22:04:46.954Z,19.30
2022-07-27T22:07:19.279Z,19.20
2022-07-27T22:09:50.099Z,19.30
2022-07-27T22:12:19.687Z,19.30
2022-07-27T22:14:49.823Z,19.20
2022-07-27T22:17:23.460Z,19.30
2022-07-27T22:19:51.784Z,19.40
2022-07-27T22:22:24.715Z,19.40
2022-07-27T22:24:53.561Z,19.30
2022-07-27T22:27:23.904Z,19.30
2022-07-27T22:29:52.148Z,19.30
2022-07-27T22:32:23.021Z,19.30
2022-07-27T22:34:53.458Z,19.30
2022-07-27T22:37:26.564Z,19.40
2022-07-27T22:39:58.014Z,19.40
2022-07-27T22:42:26.856Z,19.40
2022-07-27T22:44:55.992Z,19.40
2022-07-27T22:47:25.922Z,19.30
2022-07-27T22:49:54.314Z,19.30
2022-07-27T22:52:24.918Z,19.30
2022-07-27T22:54:53.387Z,19.40
2022-07-27T22:57:25.656Z,19.40
2022-07-27T22:59:54.302Z,19.40
2022-07-27T23:02:23.068Z,19.40
2022-07-27T23:04:56.380Z,19.40
2022-07-27T23:07:26.080Z,19.40
2022-07-27T23:09:57.081Z,19.30
2022-07-27T23:12:26.238Z,19.40
2022-07-27T23:14:55.650Z,19.50
2022-07-27T23:17:24.365Z,19.40
2022-07-27T23:19:56.701Z,19.30
2022-07-27T23:22:25.143Z,19.20
2022-07-27T23:24:53.683Z,19.30
2022-07-27T23:27:22.207Z,19.20
2022-07-27T23:29:50.447Z,19.20
2022-07-27T23:32:18.576Z,19.10
2022-07-27T23:34:47.313Z,19.00
2022-07-27T23:37:17.139Z,18.80
2022-07-27T23:39:45.538Z,18.80
2022-07-27T23:42:22.338Z,18.80
2022-07-27T23:44:51.090Z,18.80
2022-07-27T23:47:21.393Z,18.90
2022-07-27T23:49:49.916Z,18.90
2022-07-27T23:52:19.761Z,18.80
2022-07-27T23:54:48.420Z,18.80
2022-07-27T23:57:16.991Z,18.70
2022-07-27T23:59:45.526Z,18.80
